sensor_id;sensor_type;location;lat;lon;timestamp;P1;durP1;ratioP1;P2;durP2;ratioP2
41480;SDS011;27217;51.220;5.308;2022-12-22T00:02:30;0.00;;;0.00;;
41480;SDS011;27217;51.220;5.308;2022-12-22T00:05:23;0.00;;;0.00;;
41480;SDS011;27217;51.220;5.308;2022-12-22T00:08:08;0.30;;;0.30;;
41480;SDS011;27217;51.220;5.308;2022-12-22T00:10:53;0.17;;;0.17;;
41480;SDS011;27217;51.220;5.308;2022-12-22T00:13:40;0.30;;;0.30;;
41480;SDS011;27217;51.220;5.308;2022-12-22T00:16:30;0.20;;;0.20;;
41480;SDS011;27217;51.220;5.308;2022-12-22T00:19:16;0.08;;;0.08;;
41480;SDS011;27217;51.220;5.308;2022-12-22T00:22:03;0.00;;;0.00;;
41480;SDS011;27217;51.220;5.308;2022-12-22T00:24:58;0.00;;;0.00;;
41480;SDS011;27217;51.220;5.308;2022-12-22T00:27:42;0.17;;;0.17;;
41480;SDS011;27217;51.220;5.308;2022-12-22T00:30:27;0.10;;;0.10;;
41480;SDS011;27217;51.220;5.308;2022-12-22T00:33:12;0.20;;;0.17;;
41480;SDS011;27217;51.220;5.308;2022-12-22T00:35:58;0.00;;;0.00;;
41480;SDS011;27217;51.220;5.308;2022-12-22T00:38:41;0.22;;;0.22;;
41480;SDS011;27217;51.220;5.308;2022-12-22T00:41:26;0.30;;;0.20;;
41480;SDS011;27217;51.220;5.308;2022-12-22T00:44:09;0.00;;;0.00;;
41480;SDS011;27217;51.220;5.308;2022-12-22T00:46:54;1.95;;;0.65;;
41480;SDS011;27217;51.220;5.308;2022-12-22T00:49:39;0.00;;;0.00;;
41480;SDS011;27217;51.220;5.308;2022-12-22T00:52:26;0.00;;;0.00;;
41480;SDS011;27217;51.220;5.308;2022-12-22T00:55:14;0.05;;;0.05;;
41480;SDS011;27217;51.220;5.308;2022-12-22T00:58:01;0.00;;;0.00;;
41480;SDS011;27217;51.220;5.308;2022-12-22T01:00:46;0.00;;;0.00;;
41480;SDS011;27217;51.220;5.308;2022-12-22T01:03:31;0.15;;;0.15;;
41480;SDS011;27217;51.220;5.308;2022-12-22T01:06:15;0.32;;;0.32;;
41480;SDS011;27217;51.220;5.308;2022-12-22T01:09:00;0.00;;;0.00;;
41480;SDS011;27217;51.220;5.308;2022-12-22T01:11:45;0.00;;;0.00;;
41480;SDS011;27217;51.220;5.308;2022-12-22T01:14:29;0.00;;;0.00;;
41480;SDS011;27217;51.220;5.308;2022-12-22T01:17:14;0.15;;;0.15;;
41480;SDS011;27217;51.220;5.308;2022-12-22T01:19:59;0.13;;;0.13;;
41480;SDS011;27217;51.220;5.308;2022-12-22T01:22:43;0.57;;;0.32;;
41480;SDS011;27217;51.220;5.308;2022-12-22T01:25:28;0.00;;;0.00;;
41480;SDS011;27217;51.220;5.308;2022-12-22T01:28:16;0.00;;;0.00;;
41480;SDS011;27217;51.220;5.308;2022-12-22T01:31:16;0.00;;;0.00;;
41480;SDS011;27217;51.220;5.308;2022-12-22T01:34:10;0.03;;;0.03;;
41480;SDS011;27217;51.220;5.308;2022-12-22T01:36:55;0.00;;;0.00;;
41480;SDS011;27217;51.220;5.308;2022-12-22T01:39:39;0.00;;;0.00;;
41480;SDS011;27217;51.220;5.308;2022-12-22T01:42:23;0.40;;;0.40;;
41480;SDS011;27217;51.220;5.308;2022-12-22T01:45:29;0.10;;;0.10;;
41480;SDS011;27217;51.220;5.308;2022-12-22T01:48:18;0.00;;;0.00;;
41480;SDS011;27217;51.220;5.308;2022-12-22T01:51:10;0.00;;;0.00;;
41480;SDS011;27217;51.220;5.308;2022-12-22T01:53:59;0.00;;;0.00;;
41480;SDS011;27217;51.220;5.308;2022-12-22T01:56:44;0.75;;;0.65;;
41480;SDS011;27217;51.220;5.308;2022-12-22T01:59:31;0.00;;;0.00;;
41480;SDS011;27217;51.220;5.308;2022-12-22T02:02:15;0.00;;;0.00;;
41480;SDS011;27217;51.220;5.308;2022-12-22T02:05:00;0.00;;;0.00;;
41480;SDS011;27217;51.220;5.308;2022-12-22T02:08:11;0.00;;;0.00;;
41480;SDS011;27217;51.220;5.308;2022-12-22T02:14:25;0.00;;;0.00;;
41480;SDS011;27217;51.220;5.308;2022-12-22T02:17:46;0.00;;;0.00;;
41480;SDS011;27217;51.220;5.308;2022-12-22T02:20:48;0.40;;;0.40;;
41480;SDS011;27217;51.220;5.308;2022-12-22T02:23:49;0.00;;;0.00;;
41480;SDS011;27217;51.220;5.308;2022-12-22T02:30:16;0.00;;;0.00;;
41480;SDS011;27217;51.220;5.308;2022-12-22T02:32:44;0.00;;;0.00;;
41480;SDS011;27217;51.220;5.308;2022-12-22T02:35:45;0.00;;;0.00;;
41480;SDS011;27217;51.220;5.308;2022-12-22T02:44:24;0.00;;;0.00;;
41480;SDS011;27217;51.220;5.308;2022-12-22T02:50:24;0.30;;;0.30;;
41480;SDS011;27217;51.220;5.308;2022-12-22T02:53:36;0.10;;;0.10;;
41480;SDS011;27217;51.220;5.308;2022-12-22T02:56:22;0.00;;;0.00;;
41480;SDS011;27217;51.220;5.308;2022-12-22T02:59:07;0.00;;;0.00;;
41480;SDS011;27217;51.220;5.308;2022-12-22T03:01:51;0.00;;;0.00;;
41480;SDS011;27217;51.220;5.308;2022-12-22T03:04:35;0.10;;;0.10;;
41480;SDS011;27217;51.220;5.308;2022-12-22T03:07:19;0.10;;;0.10;;
41480;SDS011;27217;51.220;5.308;2022-12-22T03:10:04;0.00;;;0.00;;
41480;SDS011;27217;51.220;5.308;2022-12-22T03:12:49;0.00;;;0.00;;
41480;SDS011;27217;51.220;5.308;2022-12-22T03:15:33;0.00;;;0.00;;
41480;SDS011;27217;51.220;5.308;2022-12-22T03:18:17;0.00;;;0.00;;
41480;SDS011;27217;51.220;5.308;2022-12-22T03:21:02;0.00;;;0.00;;
41480;SDS011;27217;51.220;5.308;2022-12-22T03:23:46;0.00;;;0.00;;
41480;SDS011;27217;51.220;5.308;2022-12-22T03:26:30;0.00;;;0.00;;
41480;SDS011;27217;51.220;5.308;2022-12-22T03:28:57;0.05;;;0.05;;
41480;SDS011;27217;51.220;5.308;2022-12-22T03:31:23;0.03;;;0.03;;
41480;SDS011;27217;51.220;5.308;2022-12-22T03:33:49;0.00;;;0.00;;
41480;SDS011;27217;51.220;5.308;2022-12-22T03:36:15;0.10;;;0.10;;
41480;SDS011;27217;51.220;5.308;2022-12-22T03:38:41;0.00;;;0.00;;
41480;SDS011;27217;51.220;5.308;2022-12-22T03:41:07;0.00;;;0.00;;
41480;SDS011;27217;51.220;5.308;2022-12-22T03:43:53;0.00;;;0.00;;
41480;SDS011;27217;51.220;5.308;2022-12-22T03:46:37;2.10;;;0.90;;
41480;SDS011;27217;51.220;5.308;2022-12-22T03:49:03;0.00;;;0.00;;
41480;SDS011;27217;51.220;5.308;2022-12-22T03:51:40;0.00;;;0.00;;
41480;SDS011;27217;51.220;5.308;2022-12-22T03:54:09;0.10;;;0.10;;
41480;SDS011;27217;51.220;5.308;2022-12-22T03:56:36;0.22;;;0.22;;
41480;SDS011;27217;51.220;5.308;2022-12-22T03:59:03;0.00;;;0.00;;
41480;SDS011;27217;51.220;5.308;2022-12-22T04:01:30;0.00;;;0.00;;
41480;SDS011;27217;51.220;5.308;2022-12-22T04:03:58;0.00;;;0.00;;
41480;SDS011;27217;51.220;5.308;2022-12-22T04:06:24;0.00;;;0.00;;
41480;SDS011;27217;51.220;5.308;2022-12-22T04:08:50;0.20;;;0.20;;
41480;SDS011;27217;51.220;5.308;2022-12-22T04:11:16;0.45;;;0.45;;
41480;SDS011;27217;51.220;5.308;2022-12-22T04:14:01;1.08;;;0.73;;
41480;SDS011;27217;51.220;5.308;2022-12-22T04:16:27;0.38;;;0.38;;
41480;SDS011;27217;51.220;5.308;2022-12-22T04:18:53;0.00;;;0.00;;
41480;SDS011;27217;51.220;5.308;2022-12-22T04:21:19;0.10;;;0.10;;
41480;SDS011;27217;51.220;5.308;2022-12-22T04:23:45;0.43;;;0.43;;
41480;SDS011;27217;51.220;5.308;2022-12-22T04:26:15;0.47;;;0.47;;
41480;SDS011;27217;51.220;5.308;2022-12-22T04:28:41;0.00;;;0.00;;
41480;SDS011;27217;51.220;5.308;2022-12-22T04:31:08;0.25;;;0.25;;
41480;SDS011;27217;51.220;5.308;2022-12-22T04:33:33;0.00;;;0.00;;
41480;SDS011;27217;51.220;5.308;2022-12-22T04:36:00;0.00;;;0.00;;
41480;SDS011;27217;51.220;5.308;2022-12-22T04:38:25;0.28;;;0.28;;
41480;SDS011;27217;51.220;5.308;2022-12-22T04:40:52;0.20;;;0.20;;
41480;SDS011;27217;51.220;5.308;2022-12-22T04:43:18;0.00;;;0.00;;
41480;SDS011;27217;51.220;5.308;2022-12-22T04:45:44;0.00;;;0.00;;
41480;SDS011;27217;51.220;5.308;2022-12-22T04:48:10;0.38;;;0.38;;
41480;SDS011;27217;51.220;5.308;2022-12-22T04:50:36;0.00;;;0.00;;
41480;SDS011;27217;51.220;5.308;2022-12-22T04:53:02;0.00;;;0.00;;
41480;SDS011;27217;51.220;5.308;2022-12-22T04:55:29;0.52;;;0.52;;
41480;SDS011;27217;51.220;5.308;2022-12-22T04:57:55;0.30;;;0.30;;
41480;SDS011;27217;51.220;5.308;2022-12-22T05:00:21;0.03;;;0.03;;
41480;SDS011;27217;51.220;5.308;2022-12-22T05:02:47;0.47;;;0.47;;
41480;SDS011;27217;51.220;5.308;2022-12-22T05:05:12;0.22;;;0.22;;
41480;SDS011;27217;51.220;5.308;2022-12-22T05:07:39;0.00;;;0.00;;
41480;SDS011;27217;51.220;5.308;2022-12-22T05:10:05;0.52;;;0.45;;
41480;SDS011;27217;51.220;5.308;2022-12-22T05:12:32;0.63;;;0.63;;
41480;SDS011;27217;51.220;5.308;2022-12-22T05:15:17;0.25;;;0.20;;
41480;SDS011;27217;51.220;5.308;2022-12-22T05:17:42;0.13;;;0.13;;
41480;SDS011;27217;51.220;5.308;2022-12-22T05:20:08;0.20;;;0.20;;
41480;SDS011;27217;51.220;5.308;2022-12-22T05:22:34;0.65;;;0.65;;
41480;SDS011;27217;51.220;5.308;2022-12-22T05:25:01;0.35;;;0.35;;
41480;SDS011;27217;51.220;5.308;2022-12-22T05:27:26;0.10;;;0.10;;
41480;SDS011;27217;51.220;5.308;2022-12-22T05:29:53;0.05;;;0.05;;
41480;SDS011;27217;51.220;5.308;2022-12-22T05:32:18;0.10;;;0.10;;
41480;SDS011;27217;51.220;5.308;2022-12-22T05:34:44;0.32;;;0.32;;
41480;SDS011;27217;51.220;5.308;2022-12-22T05:37:11;24.02;;;1.67;;
41480;SDS011;27217;51.220;5.308;2022-12-22T05:39:36;0.10;;;0.10;;
41480;SDS011;27217;51.220;5.308;2022-12-22T05:42:03;0.35;;;0.30;;
41480;SDS011;27217;51.220;5.308;2022-12-22T05:44:29;0.30;;;0.30;;
41480;SDS011;27217;51.220;5.308;2022-12-22T05:46:55;0.00;;;0.00;;
41480;SDS011;27217;51.220;5.308;2022-12-22T05:49:21;0.20;;;0.20;;
41480;SDS011;27217;51.220;5.308;2022-12-22T05:51:47;0.15;;;0.15;;
41480;SDS011;27217;51.220;5.308;2022-12-22T05:54:14;0.00;;;0.00;;
41480;SDS011;27217;51.220;5.308;2022-12-22T05:56:40;0.00;;;0.00;;
41480;SDS011;27217;51.220;5.308;2022-12-22T05:59:06;0.15;;;0.15;;
41480;SDS011;27217;51.220;5.308;2022-12-22T06:01:32;0.03;;;0.03;;
41480;SDS011;27217;51.220;5.308;2022-12-22T06:03:58;0.10;;;0.10;;
41480;SDS011;27217;51.220;5.308;2022-12-22T06:06:24;0.25;;;0.25;;
41480;SDS011;27217;51.220;5.308;2022-12-22T06:08:50;1.58;;;0.70;;
41480;SDS011;27217;51.220;5.308;2022-12-22T06:11:16;1.45;;;1.35;;
41480;SDS011;27217;51.220;5.308;2022-12-22T06:13:43;0.00;;;0.00;;
41480;SDS011;27217;51.220;5.308;2022-12-22T06:16:10;0.32;;;0.32;;
41480;SDS011;27217;51.220;5.308;2022-12-22T06:18:36;0.98;;;0.98;;
41480;SDS011;27217;51.220;5.308;2022-12-22T06:21:02;0.60;;;0.60;;
41480;SDS011;27217;51.220;5.308;2022-12-22T06:23:28;3.55;;;0.80;;
41480;SDS011;27217;51.220;5.308;2022-12-22T06:26:01;0.30;;;0.30;;
41480;SDS011;27217;51.220;5.308;2022-12-22T06:28:27;1.58;;;0.85;;
41480;SDS011;27217;51.220;5.308;2022-12-22T06:30:53;7.50;;;0.88;;
41480;SDS011;27217;51.220;5.308;2022-12-22T06:33:20;0.75;;;0.75;;
41480;SDS011;27217;51.220;5.308;2022-12-22T06:35:46;3.00;;;0.52;;
41480;SDS011;27217;51.220;5.308;2022-12-22T06:38:13;0.70;;;0.70;;
41480;SDS011;27217;51.220;5.308;2022-12-22T06:40:38;0.95;;;0.95;;
41480;SDS011;27217;51.220;5.308;2022-12-22T06:43:04;0.10;;;0.10;;
41480;SDS011;27217;51.220;5.308;2022-12-22T06:45:34;0.65;;;0.65;;
41480;SDS011;27217;51.220;5.308;2022-12-22T06:48:05;1.95;;;0.95;;
41480;SDS011;27217;51.220;5.308;2022-12-22T06:50:32;0.10;;;0.10;;
41480;SDS011;27217;51.220;5.308;2022-12-22T06:52:58;0.20;;;0.20;;
41480;SDS011;27217;51.220;5.308;2022-12-22T06:55:24;0.30;;;0.30;;
41480;SDS011;27217;51.220;5.308;2022-12-22T06:57:50;0.22;;;0.22;;
41480;SDS011;27217;51.220;5.308;2022-12-22T07:00:16;0.57;;;0.57;;
41480;SDS011;27217;51.220;5.308;2022-12-22T07:02:45;0.30;;;0.30;;
41480;SDS011;27217;51.220;5.308;2022-12-22T07:05:11;0.10;;;0.10;;
41480;SDS011;27217;51.220;5.308;2022-12-22T07:07:37;0.73;;;0.73;;
41480;SDS011;27217;51.220;5.308;2022-12-22T07:10:03;0.52;;;0.52;;
41480;SDS011;27217;51.220;5.308;2022-12-22T07:12:29;0.40;;;0.40;;
41480;SDS011;27217;51.220;5.308;2022-12-22T07:14:55;0.73;;;0.73;;
41480;SDS011;27217;51.220;5.308;2022-12-22T07:17:21;7.65;;;1.23;;
41480;SDS011;27217;51.220;5.308;2022-12-22T07:19:47;0.35;;;0.35;;
41480;SDS011;27217;51.220;5.308;2022-12-22T07:22:13;0.90;;;0.63;;
41480;SDS011;27217;51.220;5.308;2022-12-22T07:24:39;4.18;;;1.75;;
41480;SDS011;27217;51.220;5.308;2022-12-22T07:27:04;0.20;;;0.20;;
41480;SDS011;27217;51.220;5.308;2022-12-22T07:29:30;0.50;;;0.50;;
41480;SDS011;27217;51.220;5.308;2022-12-22T07:31:56;0.80;;;0.80;;
41480;SDS011;27217;51.220;5.308;2022-12-22T07:34:22;0.10;;;0.10;;
41480;SDS011;27217;51.220;5.308;2022-12-22T07:36:49;12.90;;;3.90;;
41480;SDS011;27217;51.220;5.308;2022-12-22T07:39:15;0.38;;;0.38;;
41480;SDS011;27217;51.220;5.308;2022-12-22T07:41:40;0.10;;;0.10;;
41480;SDS011;27217;51.220;5.308;2022-12-22T07:44:24;2.67;;;1.38;;
41480;SDS011;27217;51.220;5.308;2022-12-22T07:46:50;2.58;;;2.33;;
41480;SDS011;27217;51.220;5.308;2022-12-22T07:49:16;0.25;;;0.25;;
41480;SDS011;27217;51.220;5.308;2022-12-22T07:52:00;1.45;;;1.40;;
41480;SDS011;27217;51.220;5.308;2022-12-22T07:54:26;1.42;;;1.40;;
41480;SDS011;27217;51.220;5.308;2022-12-22T07:56:52;1.58;;;1.55;;
41480;SDS011;27217;51.220;5.308;2022-12-22T07:59:18;0.00;;;0.00;;
41480;SDS011;27217;51.220;5.308;2022-12-22T08:01:44;0.63;;;0.63;;
41480;SDS011;27217;51.220;5.308;2022-12-22T08:04:11;2.63;;;2.20;;
41480;SDS011;27217;51.220;5.308;2022-12-22T08:06:37;0.32;;;0.32;;
41480;SDS011;27217;51.220;5.308;2022-12-22T08:09:04;0.82;;;0.82;;
41480;SDS011;27217;51.220;5.308;2022-12-22T08:11:30;1.17;;;1.08;;
41480;SDS011;27217;51.220;5.308;2022-12-22T08:13:57;0.28;;;0.28;;
41480;SDS011;27217;51.220;5.308;2022-12-22T08:16:22;0.75;;;0.75;;
41480;SDS011;27217;51.220;5.308;2022-12-22T08:18:48;0.43;;;0.43;;
41480;SDS011;27217;51.220;5.308;2022-12-22T08:21:14;2.40;;;0.52;;
41480;SDS011;27217;51.220;5.308;2022-12-22T08:23:40;1.45;;;1.45;;
41480;SDS011;27217;51.220;5.308;2022-12-22T08:26:09;2.72;;;2.50;;
41480;SDS011;27217;51.220;5.308;2022-12-22T08:28:39;1.17;;;1.17;;
41480;SDS011;27217;51.220;5.308;2022-12-22T08:31:17;2.03;;;1.90;;
41480;SDS011;27217;51.220;5.308;2022-12-22T08:33:43;3.78;;;3.47;;
41480;SDS011;27217;51.220;5.308;2022-12-22T08:36:10;1.30;;;0.88;;
41480;SDS011;27217;51.220;5.308;2022-12-22T08:38:37;1.42;;;1.35;;
41480;SDS011;27217;51.220;5.308;2022-12-22T08:41:06;1.10;;;1.10;;
41480;SDS011;27217;51.220;5.308;2022-12-22T08:43:34;3.40;;;2.10;;
41480;SDS011;27217;51.220;5.308;2022-12-22T08:46:00;5.93;;;2.53;;
41480;SDS011;27217;51.220;5.308;2022-12-22T08:48:26;1.90;;;1.52;;
41480;SDS011;27217;51.220;5.308;2022-12-22T08:50:52;2.60;;;1.42;;
41480;SDS011;27217;51.220;5.308;2022-12-22T08:53:18;1.35;;;1.30;;
41480;SDS011;27217;51.220;5.308;2022-12-22T08:55:50;9.25;;;1.35;;
41480;SDS011;27217;51.220;5.308;2022-12-22T08:58:17;2.22;;;0.73;;
41480;SDS011;27217;51.220;5.308;2022-12-22T09:00:43;1.15;;;1.15;;
41480;SDS011;27217;51.220;5.308;2022-12-22T09:03:09;1.15;;;1.05;;
41480;SDS011;27217;51.220;5.308;2022-12-22T09:05:35;0.63;;;0.63;;
41480;SDS011;27217;51.220;5.308;2022-12-22T09:08:03;8.68;;;4.68;;
41480;SDS011;27217;51.220;5.308;2022-12-22T09:10:29;3.95;;;1.27;;
41480;SDS011;27217;51.220;5.308;2022-12-22T09:12:55;0.32;;;0.32;;
41480;SDS011;27217;51.220;5.308;2022-12-22T09:15:21;0.43;;;0.43;;
41480;SDS011;27217;51.220;5.308;2022-12-22T09:17:47;0.77;;;0.77;;
41480;SDS011;27217;51.220;5.308;2022-12-22T09:20:13;1.75;;;1.45;;
41480;SDS011;27217;51.220;5.308;2022-12-22T09:22:39;0.30;;;0.30;;
41480;SDS011;27217;51.220;5.308;2022-12-22T09:25:05;0.65;;;0.65;;
41480;SDS011;27217;51.220;5.308;2022-12-22T09:27:31;1.75;;;1.65;;
41480;SDS011;27217;51.220;5.308;2022-12-22T09:29:56;0.50;;;0.50;;
41480;SDS011;27217;51.220;5.308;2022-12-22T09:32:22;0.75;;;0.75;;
41480;SDS011;27217;51.220;5.308;2022-12-22T09:34:48;1.23;;;1.23;;
41480;SDS011;27217;51.220;5.308;2022-12-22T09:37:14;0.32;;;0.32;;
41480;SDS011;27217;51.220;5.308;2022-12-22T09:39:41;2.58;;;2.38;;
41480;SDS011;27217;51.220;5.308;2022-12-22T09:42:14;0.30;;;0.30;;
41480;SDS011;27217;51.220;5.308;2022-12-22T09:44:43;1.05;;;1.05;;
41480;SDS011;27217;51.220;5.308;2022-12-22T09:47:20;2.05;;;1.83;;
41480;SDS011;27217;51.220;5.308;2022-12-22T09:49:50;3.30;;;2.38;;
41480;SDS011;27217;51.220;5.308;2022-12-22T09:52:40;0.70;;;0.70;;
41480;SDS011;27217;51.220;5.308;2022-12-22T09:55:14;0.57;;;0.57;;
41480;SDS011;27217;51.220;5.308;2022-12-22T09:58:04;2.37;;;2.17;;
41480;SDS011;27217;51.220;5.308;2022-12-22T10:01:00;0.30;;;0.30;;
41480;SDS011;27217;51.220;5.308;2022-12-22T10:03:42;0.13;;;0.13;;
41480;SDS011;27217;51.220;5.308;2022-12-22T10:06:23;0.60;;;0.60;;
41480;SDS011;27217;51.220;5.308;2022-12-22T10:08:53;1.05;;;0.90;;
41480;SDS011;27217;51.220;5.308;2022-12-22T10:11:19;1.23;;;1.23;;
41480;SDS011;27217;51.220;5.308;2022-12-22T10:13:45;2.38;;;2.25;;
41480;SDS011;27217;51.220;5.308;2022-12-22T10:16:25;2.85;;;2.30;;
41480;SDS011;27217;51.220;5.308;2022-12-22T10:19:06;0.40;;;0.40;;
41480;SDS011;27217;51.220;5.308;2022-12-22T10:21:33;7.20;;;0.88;;
41480;SDS011;27217;51.220;5.308;2022-12-22T10:23:59;4.45;;;1.67;;
41480;SDS011;27217;51.220;5.308;2022-12-22T10:26:38;4.05;;;0.93;;
41480;SDS011;27217;51.220;5.308;2022-12-22T10:29:13;1.95;;;1.85;;
41480;SDS011;27217;51.220;5.308;2022-12-22T10:32:01;0.70;;;0.70;;
41480;SDS011;27217;51.220;5.308;2022-12-22T10:34:29;0.75;;;0.75;;
41480;SDS011;27217;51.220;5.308;2022-12-22T10:37:00;0.70;;;0.70;;
41480;SDS011;27217;51.220;5.308;2022-12-22T10:39:29;0.50;;;0.50;;
41480;SDS011;27217;51.220;5.308;2022-12-22T10:41:59;0.60;;;0.60;;
41480;SDS011;27217;51.220;5.308;2022-12-22T10:44:31;0.77;;;0.77;;
41480;SDS011;27217;51.220;5.308;2022-12-22T10:47:00;1.02;;;1.02;;
41480;SDS011;27217;51.220;5.308;2022-12-22T10:49:39;1.52;;;1.45;;
41480;SDS011;27217;51.220;5.308;2022-12-22T10:52:09;0.88;;;0.88;;
41480;SDS011;27217;51.220;5.308;2022-12-22T10:54:39;2.72;;;1.65;;
41480;SDS011;27217;51.220;5.308;2022-12-22T11:02:37;7.97;;;3.83;;
41480;SDS011;27217;51.220;5.308;2022-12-22T11:05:07;0.40;;;0.40;;
41480;SDS011;27217;51.220;5.308;2022-12-22T11:07:40;1.15;;;1.15;;
41480;SDS011;27217;51.220;5.308;2022-12-22T11:20:58;0.57;;;0.57;;
41480;SDS011;27217;51.220;5.308;2022-12-22T11:26:19;0.47;;;0.47;;
41480;SDS011;27217;51.220;5.308;2022-12-22T11:31:47;1.10;;;0.93;;
41480;SDS011;27217;51.220;5.308;2022-12-22T11:34:39;0.08;;;0.08;;
41480;SDS011;27217;51.220;5.308;2022-12-22T11:38:11;0.75;;;0.75;;
41480;SDS011;27217;51.220;5.308;2022-12-22T11:40:32;0.57;;;0.57;;
41480;SDS011;27217;51.220;5.308;2022-12-22T11:51:07;0.70;;;0.70;;
41480;SDS011;27217;51.220;5.308;2022-12-22T11:54:03;0.20;;;0.20;;
41480;SDS011;27217;51.220;5.308;2022-12-22T12:07:47;0.47;;;0.47;;
41480;SDS011;27217;51.220;5.308;2022-12-22T12:10:25;1.45;;;1.05;;
41480;SDS011;27217;51.220;5.308;2022-12-22T12:18:41;0.95;;;0.82;;
41480;SDS011;27217;51.220;5.308;2022-12-22T12:23:58;0.15;;;0.15;;
41480;SDS011;27217;51.220;5.308;2022-12-22T12:26:31;0.95;;;0.95;;
41480;SDS011;27217;51.220;5.308;2022-12-22T12:34:35;5.03;;;1.95;;
41480;SDS011;27217;51.220;5.308;2022-12-22T12:42:42;2.30;;;1.67;;
41480;SDS011;27217;51.220;5.308;2022-12-22T12:48:37;0.10;;;0.10;;
41480;SDS011;27217;51.220;5.308;2022-12-22T12:50:56;0.32;;;0.32;;
41480;SDS011;27217;51.220;5.308;2022-12-22T12:53:23;0.20;;;0.20;;
41480;SDS011;27217;51.220;5.308;2022-12-22T13:01:04;13.52;;;8.18;;
41480;SDS011;27217;51.220;5.308;2022-12-22T13:03:40;14.05;;;7.65;;
41480;SDS011;27217;51.220;5.308;2022-12-22T13:06:07;10.57;;;6.50;;
41480;SDS011;27217;51.220;5.308;2022-12-22T13:11:32;13.98;;;7.32;;
41480;SDS011;27217;51.220;5.308;2022-12-22T13:14:00;16.85;;;7.50;;
41480;SDS011;27217;51.220;5.308;2022-12-22T13:16:27;16.10;;;7.40;;
41480;SDS011;27217;51.220;5.308;2022-12-22T13:18:58;11.05;;;6.40;;
41480;SDS011;27217;51.220;5.308;2022-12-22T13:21:29;14.05;;;6.70;;
41480;SDS011;27217;51.220;5.308;2022-12-22T13:26:40;13.13;;;6.80;;
41480;SDS011;27217;51.220;5.308;2022-12-22T13:34:37;14.73;;;6.40;;
41480;SDS011;27217;51.220;5.308;2022-12-22T13:37:13;11.13;;;6.20;;
41480;SDS011;27217;51.220;5.308;2022-12-22T13:39:40;13.45;;;5.90;;
41480;SDS011;27217;51.220;5.308;2022-12-22T13:42:08;12.07;;;7.25;;
41480;SDS011;27217;51.220;5.308;2022-12-22T13:44:37;11.63;;;6.95;;
41480;SDS011;27217;51.220;5.308;2022-12-22T13:47:10;15.25;;;7.43;;
41480;SDS011;27217;51.220;5.308;2022-12-22T13:49:39;13.35;;;6.55;;
41480;SDS011;27217;51.220;5.308;2022-12-22T13:52:11;13.93;;;5.85;;
41480;SDS011;27217;51.220;5.308;2022-12-22T13:54:41;9.70;;;5.65;;
41480;SDS011;27217;51.220;5.308;2022-12-22T13:57:16;9.05;;;5.13;;
41480;SDS011;27217;51.220;5.308;2022-12-22T13:59:45;8.80;;;4.72;;
41480;SDS011;27217;51.220;5.308;2022-12-22T14:02:17;8.43;;;4.90;;
41480;SDS011;27217;51.220;5.308;2022-12-22T14:05:01;10.07;;;5.72;;
41480;SDS011;27217;51.220;5.308;2022-12-22T14:07:35;10.77;;;5.40;;
41480;SDS011;27217;51.220;5.308;2022-12-22T14:10:01;10.80;;;5.78;;
41480;SDS011;27217;51.220;5.308;2022-12-22T14:12:30;21.00;;;5.70;;
41480;SDS011;27217;51.220;5.308;2022-12-22T14:15:07;10.10;;;5.60;;
41480;SDS011;27217;51.220;5.308;2022-12-22T14:17:41;11.35;;;5.30;;
41480;SDS011;27217;51.220;5.308;2022-12-22T14:20:17;9.10;;;5.85;;
41480;SDS011;27217;51.220;5.308;2022-12-22T14:22:53;8.60;;;5.57;;
41480;SDS011;27217;51.220;5.308;2022-12-22T14:25:30;11.02;;;5.15;;
41480;SDS011;27217;51.220;5.308;2022-12-22T14:28:05;9.55;;;4.97;;
41480;SDS011;27217;51.220;5.308;2022-12-22T14:30:42;7.13;;;5.13;;
41480;SDS011;27217;51.220;5.308;2022-12-22T14:38:53;12.57;;;4.88;;
41480;SDS011;27217;51.220;5.308;2022-12-22T14:44:15;7.78;;;4.97;;
41480;SDS011;27217;51.220;5.308;2022-12-22T14:47:05;12.38;;;5.50;;
41480;SDS011;27217;51.220;5.308;2022-12-22T14:52:36;9.68;;;5.03;;
41480;SDS011;27217;51.220;5.308;2022-12-22T14:55:20;7.15;;;5.05;;
41480;SDS011;27217;51.220;5.308;2022-12-22T15:00:40;7.07;;;5.43;;
41480;SDS011;27217;51.220;5.308;2022-12-22T15:05:54;8.30;;;6.00;;
41480;SDS011;27217;51.220;5.308;2022-12-22T15:08:36;7.28;;;5.20;;
41480;SDS011;27217;51.220;5.308;2022-12-22T15:11:13;12.40;;;5.80;;
41480;SDS011;27217;51.220;5.308;2022-12-22T15:13:43;10.05;;;5.30;;
41480;SDS011;27217;51.220;5.308;2022-12-22T15:16:11;8.30;;;5.80;;
41480;SDS011;27217;51.220;5.308;2022-12-22T15:18:41;9.25;;;5.80;;
41480;SDS011;27217;51.220;5.308;2022-12-22T15:21:08;6.57;;;5.72;;
41480;SDS011;27217;51.220;5.308;2022-12-22T15:23:37;10.50;;;6.50;;
41480;SDS011;27217;51.220;5.308;2022-12-22T15:26:03;9.15;;;6.80;;
41480;SDS011;27217;51.220;5.308;2022-12-22T15:28:30;9.85;;;6.63;;
41480;SDS011;27217;51.220;5.308;2022-12-22T15:30:59;11.63;;;6.63;;
41480;SDS011;27217;51.220;5.308;2022-12-22T15:33:26;10.30;;;6.95;;
41480;SDS011;27217;51.220;5.308;2022-12-22T15:35:54;11.45;;;6.18;;
41480;SDS011;27217;51.220;5.308;2022-12-22T15:38:21;9.95;;;6.93;;
41480;SDS011;27217;51.220;5.308;2022-12-22T15:40:47;12.43;;;7.53;;
41480;SDS011;27217;51.220;5.308;2022-12-22T15:43:14;11.45;;;7.43;;
41480;SDS011;27217;51.220;5.308;2022-12-22T15:45:40;16.70;;;8.00;;
41480;SDS011;27217;51.220;5.308;2022-12-22T15:48:09;14.10;;;7.90;;
41480;SDS011;27217;51.220;5.308;2022-12-22T15:50:41;15.23;;;8.25;;
41480;SDS011;27217;51.220;5.308;2022-12-22T15:53:10;14.98;;;8.23;;
41480;SDS011;27217;51.220;5.308;2022-12-22T15:55:43;16.67;;;8.63;;
41480;SDS011;27217;51.220;5.308;2022-12-22T15:58:14;14.13;;;8.48;;
41480;SDS011;27217;51.220;5.308;2022-12-22T16:00:50;20.55;;;9.40;;
41480;SDS011;27217;51.220;5.308;2022-12-22T16:03:15;20.70;;;10.35;;
41480;SDS011;27217;51.220;5.308;2022-12-22T16:05:41;17.00;;;9.07;;
41480;SDS011;27217;51.220;5.308;2022-12-22T16:08:16;17.73;;;9.05;;
41480;SDS011;27217;51.220;5.308;2022-12-22T16:10:45;23.10;;;9.35;;
41480;SDS011;27217;51.220;5.308;2022-12-22T16:13:12;28.48;;;9.77;;
41480;SDS011;27217;51.220;5.308;2022-12-22T16:15:39;21.50;;;9.23;;
41480;SDS011;27217;51.220;5.308;2022-12-22T16:18:06;31.30;;;10.52;;
41480;SDS011;27217;51.220;5.308;2022-12-22T16:20:36;22.52;;;10.50;;
41480;SDS011;27217;51.220;5.308;2022-12-22T16:23:05;28.33;;;10.18;;
41480;SDS011;27217;51.220;5.308;2022-12-22T16:25:36;25.95;;;9.95;;
41480;SDS011;27217;51.220;5.308;2022-12-22T16:28:03;19.55;;;9.27;;
41480;SDS011;27217;51.220;5.308;2022-12-22T16:30:31;25.35;;;10.13;;
41480;SDS011;27217;51.220;5.308;2022-12-22T16:32:58;27.88;;;10.05;;
41480;SDS011;27217;51.220;5.308;2022-12-22T16:35:25;17.70;;;9.55;;
41480;SDS011;27217;51.220;5.308;2022-12-22T16:37:56;25.95;;;9.80;;
41480;SDS011;27217;51.220;5.308;2022-12-22T16:40:24;43.95;;;11.50;;
41480;SDS011;27217;51.220;5.308;2022-12-22T16:42:56;24.17;;;9.43;;
41480;SDS011;27217;51.220;5.308;2022-12-22T16:45:28;28.45;;;9.18;;
41480;SDS011;27217;51.220;5.308;2022-12-22T16:47:56;27.50;;;8.20;;
41480;SDS011;27217;51.220;5.308;2022-12-22T16:50:26;40.47;;;8.52;;
41480;SDS011;27217;51.220;5.308;2022-12-22T16:53:00;0.32;;;0.32;;
41480;SDS011;27217;51.220;5.308;2022-12-22T16:55:28;0.00;;;0.00;;
41480;SDS011;27217;51.220;5.308;2022-12-22T16:57:55;0.25;;;0.25;;
41480;SDS011;27217;51.220;5.308;2022-12-22T17:00:25;0.20;;;0.20;;
41480;SDS011;27217;51.220;5.308;2022-12-22T17:02:57;0.13;;;0.13;;
41480;SDS011;27217;51.220;5.308;2022-12-22T17:05:28;0.50;;;0.50;;
41480;SDS011;27217;51.220;5.308;2022-12-22T17:08:06;0.32;;;0.32;;
41480;SDS011;27217;51.220;5.308;2022-12-22T17:10:33;0.10;;;0.10;;
41480;SDS011;27217;51.220;5.308;2022-12-22T17:12:59;0.55;;;0.55;;
41480;SDS011;27217;51.220;5.308;2022-12-22T17:15:26;0.10;;;0.10;;